• Join FlightAware (Why Join?)
  • Login
  • US Flag 
02:38AM EST


 

Airport Tracker/Info


-or-


 

Live Flight TrackerFlight Track Log ✈ TAM3891 ✈ 21-Jul-2013 ✈ SBEG / MAO - SBBE / BEL

Flight Track Log - Related Links

Times and Time Zones

All times are in EDT time to prevent confusion due to time zone crossing. See the TAM3891 flight status page for this flight to view local times or setup timezone preferences in your user account.

Time Position Orientation Groundspeed Altitude Reporting Facility
EDT Latitude Longitude Course Direction KTS MPH feet Rate Location/Type
03:53PM -3.0390 -60.0310 90° East 160 184 1,100  Level FlightAware
03:53PM -3.0390 -60.0120 90° East 179 206 1,600 1,080 Climbing FlightAware
03:54PM -3.0390 -60.0000 90° East 196 226 1,800 840 Climbing FlightAware
03:54PM -3.0420 -59.9740 97° East 228 262 2,200 1,260 Climbing FlightAware
03:55PM -3.0540 -59.9470 114° Southeast 258 297 2,900 2,220 Climbing FlightAware
03:55PM -3.0700 -59.9160 117° Southeast 263 303 4,200 3,000 Climbing FlightAware
03:55PM -3.0790 -59.9000 119° Southeast 261 300 5,100 3,000 Climbing FlightAware
03:56PM -3.0920 -59.8730 116° Southeast 264 304 6,200 2,640 Climbing FlightAware
03:56PM -3.1100 -59.8390 118° Southeast 270 311 7,600 2,520 Climbing FlightAware
03:57PM -3.1260 -59.8070 117° Southeast 278 320 8,700 2,340 Climbing FlightAware
03:57PM -3.1430 -59.7740 117° Southeast 284 327 9,800 1,800 Climbing FlightAware
03:58PM -3.1700 -59.7230 118° Southeast 313 360 10,800 1,800 Climbing FlightAware
03:59PM -3.1960 -59.6720 117° Southeast 317 365 12,300 2,100 Climbing FlightAware
03:59PM -3.1940 -59.6110 88° East 323 372 13,700 1,920 Climbing FlightAware
04:00PM -3.1830 -59.5470 80° East 334 384 15,000 1,380 Climbing FlightAware
04:01PM -3.1720 -59.4770 81° East 362 417 15,700 600 Climbing FlightAware
04:01PM -3.1600 -59.4010 81° East 374 430 16,000 180 Climbing FlightAware
04:02PM -3.1490 -59.3310 81° East 374 430 16,000  Level FlightAware
04:03PM -3.1410 -59.2800 81° East 374 430 16,000  Level FlightAware
04:04PM -3.1300 -59.2100 81° East 374 430 16,000 360 Level FlightAware
04:06PM -3.1060 -59.0587 81° East  Level Estimated
04:07PM -3.0929 -58.9762 81° East  Level Estimated
04:08PM -3.0797 -58.8937 81° East  Level Estimated
04:09PM -3.0666 -58.8111 81° East  Level Estimated
04:10PM -3.0535 -58.7286 81° East  Level Estimated
04:11PM -3.0403 -58.6461 81° East  Level Estimated
04:12PM -3.0272 -58.5636 81° East  Level Estimated
04:13PM -3.0140 -58.4811 81° East  Level Estimated
04:14PM -3.0009 -58.3985 81° East  Level Estimated
04:15PM -2.9877 -58.3160 81° East  Level Estimated
04:16PM -2.9746 -58.2335 81° East  Level Estimated
04:17PM -2.9614 -58.1510 81° East  Level Estimated
04:18PM -2.9482 -58.0685 81° East  Level Estimated
04:19PM -2.9350 -57.9860 81° East  Level Estimated
04:20PM -2.9218 -57.9035 81° East  Level Estimated
04:21PM -2.9086 -57.8210 81° East  Level Estimated
04:22PM -2.8954 -57.7385 81° East  Level Estimated
04:23PM -2.8822 -57.6560 81° East  Level Estimated
04:24PM -2.8690 -57.5735 81° East  Level Estimated
04:25PM -2.8557 -57.4911 81° East  Level Estimated
04:26PM -2.8425 -57.4086 81° East  Level Estimated
04:27PM -2.8293 -57.3261 81° East  Level Estimated
04:28PM -2.8160 -57.2436 81° East  Level Estimated
04:29PM -2.8028 -57.1611 81° East  Level Estimated
04:30PM -2.7895 -57.0786 81° East  Level Estimated
04:31PM -2.7734 -56.9782 81° East  Level Estimated
04:32PM -2.7572 -56.8778 81° East  Level Estimated
04:33PM -2.7411 -56.7774 81° East  Level Estimated
04:34PM -2.7249 -56.6770 81° East  Level Estimated
04:35PM -2.7087 -56.5766 81° East  Level Estimated
04:36PM -2.6925 -56.4762 81° East  Level Estimated
04:37PM -2.6763 -56.3758 81° East  Level Estimated
04:38PM -2.6601 -56.2754 81° East  Level Estimated
04:39PM -2.6439 -56.1750 81° East  Level Estimated
04:40PM -2.6247 -56.0560 81° East  Level Estimated
04:41PM -2.6055 -55.9370 81° East  Level Estimated
04:42PM -2.5862 -55.8180 81° East  Level Estimated
04:43PM -2.5670 -55.6990 81° East  Level Estimated
04:44PM -2.5477 -55.5800 81° East  Level Estimated
04:45PM -2.5284 -55.4610 81° East  Level Estimated
04:46PM -2.5091 -55.3420 81° East  Level Estimated
04:47PM -2.4898 -55.2231 81° East  Level Estimated
04:48PM -2.4705 -55.1041 81° East  Level Estimated
04:49PM -2.4511 -54.9851 81° East  Level Estimated
04:50PM -2.4318 -54.8661 81° East  Level Estimated
04:51PM -2.4124 -54.7472 81° East  Level Estimated
04:52PM -2.3931 -54.6282 81° East  Level Estimated
04:53PM -2.3737 -54.5092 81° East  Level Estimated
04:54PM -2.3543 -54.3903 81° East  Level Estimated
04:55PM -2.3349 -54.2713 81° East  Level Estimated
04:55PM -2.1140 -52.8990 81° East 455 524 35,000  Level FlightAware
04:55PM -2.0990 -52.8110 80° East 455 524 35,000  Level FlightAware
04:56PM -2.3155 -54.1523 81° East  Level Estimated
04:56PM -2.0800 -52.6930 81° East 455 524 35,000  Level FlightAware
04:57PM -2.0650 -52.5970 81° East 457 526 35,000  Level FlightAware
04:58PM -2.0510 -52.5110 81° East 456 525 35,000  Level FlightAware
04:58PM -2.0360 -52.4190 81° East 457 526 35,000  Level FlightAware
04:59PM -2.0170 -52.3060 80° East 456 525 35,000  Level FlightAware
05:00PM -2.0060 -52.2400 81° East 456 525 35,000  Level FlightAware
05:01PM -1.9880 -52.1280 81° East 457 526 35,000  Level FlightAware
05:01PM -1.9750 -52.0530 80° East 458 527 35,000  Level FlightAware
05:02PM -1.9580 -51.9480 81° East 458 527 35,000  Level FlightAware
05:03PM -1.9450 -51.8680 81° East 458 527 35,000  Level FlightAware
05:03PM -1.9300 -51.7800 80° East 458 527 35,000  Level FlightAware
05:04PM -1.9170 -51.6990 81° East 459 528 35,000  Level FlightAware
05:05PM -1.9010 -51.6020 81° East 459 528 35,000  Level FlightAware
05:06PM -1.8870 -51.5150 81° East 459 528 35,000  Level FlightAware
05:06PM -1.8720 -51.4280 80° East 459 528 35,000  Level FlightAware
05:07PM -1.8590 -51.3490 81° East 458 527 35,000  Level FlightAware
05:08PM -1.8430 -51.2520 81° East 460 529 35,000  Level FlightAware
05:08PM -1.8290 -51.1640 81° East 459 528 35,000  Level FlightAware
05:09PM -1.8160 -51.0850 81° East 459 528 35,000  Level FlightAware
05:10PM -1.8000 -50.9870 81° East 458 527 35,000  Level FlightAware
05:10PM -1.7880 -50.9140 81° East 458 527 35,000  Level FlightAware
05:12PM -1.7640 -50.7710 80° East 459 528 35,000  Level FlightAware
05:12PM -1.7490 -50.6790 81° East 459 528 35,000  Level FlightAware
05:13PM -1.7350 -50.5960 80° East 460 529 35,000  Level FlightAware
05:14PM -1.7200 -50.5060 81° East 460 529 35,000  Level FlightAware
05:14PM -1.7060 -50.4220 81° East 459 528 35,000  Level FlightAware
05:15PM -1.6900 -50.3230 81° East 458 527 35,000  Level FlightAware
05:16PM -1.6770 -50.2420 81° East 457 526 35,000  Level FlightAware
05:16PM -1.6630 -50.1600 80° East 457 526 35,000 -1,440 Level FlightAware
05:17PM -1.6490 -50.0760 81° East 465 535 33,100 -3,480 Descending FlightAware
05:18PM -1.6320 -49.9730 81° East 473 544 30,100 -2,460 Descending FlightAware
05:19PM -1.6150 -49.8730 80° East 435 501 29,100 -840 Descending FlightAware
05:20PM -1.5970 -49.7800 79° East 385 443 28,700 -1,680 Descending FlightAware
05:20PM -1.5870 -49.7110 82° East 395 455 26,600 -3,720 Descending FlightAware
05:21PM -1.5740 -49.6220 82° East 418 481 23,400 -4,320 Descending FlightAware
05:21PM -1.5660 -49.5730 81° East 430 495 21,500 -3,180 Descending FlightAware
05:22PM -1.5540 -49.5040 80° East 418 481 19,800 -2,640 Descending FlightAware
05:23PM -1.5430 -49.4330 81° East 414 476 17,700 -3,480 Descending FlightAware
05:24PM -1.5260 -49.3340 80° East 408 470 15,000 -3,000 Descending FlightAware
05:24PM -1.5150 -49.2650 81° East 385 443 13,800 -2,400 Descending FlightAware
05:25PM -1.5100 -49.1830 87° East 379 436 11,700 -1,920 Descending FlightAware
05:26PM -1.5100 -49.1450 90° East 357 411 11,300 -1,080 Descending FlightAware
05:26PM -1.5100 -49.0750 90° East 322 371 10,500 -900 Descending FlightAware
05:27PM -1.5090 -49.0250 89° East 296 341 10,100 -840 Descending FlightAware
05:27PM -1.5090 -48.9880 90° East 284 327 9,500 -1,800 Descending FlightAware
05:28PM -1.5080 -48.9500 88° East 281 323 8,700 -2,100 Descending FlightAware
05:28PM -1.5080 -48.9120 90° East 280 322 7,900 -1,680 Descending FlightAware
05:29PM -1.5080 -48.8840 90° East 276 318 7,300 -1,440 Descending FlightAware
05:29PM -1.5080 -48.8610 90° East 274 315 6,900 -1,800 Descending FlightAware
05:29PM -1.5070 -48.8260 88° East 274 315 6,000 -1,620 Descending FlightAware
05:30PM -1.5070 -48.7910 90° East 269 310 5,400 -1,440 Descending FlightAware
05:30PM -1.5070 -48.7640 90° East 264 304 4,800 -1,860 Descending FlightAware
05:31PM -1.5060 -48.7250 89° East 268 308 3,800 -1,860 Descending FlightAware
05:31PM -1.5060 -48.6940 90° East 267 307 3,100 -1,620 Descending FlightAware
05:31PM -1.5060 -48.6660 90° East 265 305 2,400 -1,320 Descending FlightAware
05:32PM -1.5060 -48.6470 90° East 257 296 2,300 -600 Descending FlightAware
05:32PM -1.5050 -48.6130 88° East 235 270 2,000 -300 Descending FlightAware
05:32PM -1.5030 -48.6040 77° East 226 260 2,100 240 Climbing FlightAware
05:33PM -1.4930 -48.5910 52° Northeast 207 238 2,100  Level FlightAware
05:33PM -1.4860 -48.5840 45° Northeast 201 231 2,100  Level FlightAware
05:33PM -1.4670 -48.5650 45° Northeast 186 214 2,100 -360 Level FlightAware
05:34PM -1.4530 -48.5510 45° Northeast 170 196 1,800 -780 Descending FlightAware
05:34PM -1.4380 -48.5360 45° Northeast 148 170 1,400 -780 Descending FlightAware
05:35PM -1.4250 -48.5230 45° Northeast 138 159 1,100 -720 Descending FlightAware
05:35PM -1.4130 -48.5100 47° Northeast 136 157 800 -720 Descending FlightAware
05:35PM -1.4050 -48.5020 45° Northeast 136 157 600 -720 Descending FlightAware
05:36PM -1.3950 -48.4920 45° Northeast 135 155 300 -600 Descending FlightAware
05:36PM -1.3910 -48.4880 45° Northeast 134 154 200 -600 Descending FlightAware
05:37PM -1.3790 -48.4760 45° Northeast 19 22 -360 Descending FlightAware
05:37PM -1.3800 -48.4760 180° South 16 18  Level FlightAware
05:38PM -1.3810 -48.4760 180° South 24 28  Level FlightAware
05:38PM -1.3850 -48.4770 194° South 29 33  Level FlightAware
05:38PM -1.3860 -48.4770 180° South 30 35  Level FlightAware
05:39PM -1.3900 -48.4770 180° South 17 20  Level FlightAware
05:39PM -1.3900 -48.4790 270° West  Level FlightAware
05:42PM -1.3793 -48.4763 14° North  Level Estimated